sensor_id;sensor_type;location;lat;lon;timestamp;temperature;humidity
3194;DHT22;1608;50.860;13.466;2022-12-29T00:00:15;9.60;99.90
3194;DHT22;1608;50.860;13.466;2022-12-29T00:02:41;9.50;99.90
3194;DHT22;1608;50.860;13.466;2022-12-29T00:05:10;9.60;99.90
3194;DHT22;1608;50.860;13.466;2022-12-29T00:07:37;9.60;99.90
3194;DHT22;1608;50.860;13.466;2022-12-29T00:10:04;9.70;99.90
3194;DHT22;1608;50.860;13.466;2022-12-29T00:12:31;9.70;99.90
3194;DHT22;1608;50.860;13.466;2022-12-29T00:15:12;9.70;99.90
3194;DHT22;1608;50.860;13.466;2022-12-29T00:17:56;9.80;99.90
3194;DHT22;1608;50.860;13.466;2022-12-29T00:20:24;9.80;99.90
3194;DHT22;1608;50.860;13.466;2022-12-29T00:23:09;9.70;99.90
3194;DHT22;1608;50.860;13.466;2022-12-29T00:25:53;9.80;99.90
3194;DHT22;1608;50.860;13.466;2022-12-29T00:28:37;9.80;99.90
3194;DHT22;1608;50.860;13.466;2022-12-29T00:31:21;9.80;99.90
3194;DHT22;1608;50.860;13.466;2022-12-29T00:34:08;9.90;99.90
3194;DHT22;1608;50.860;13.466;2022-12-29T00:36:54;9.90;99.90
3194;DHT22;1608;50.860;13.466;2022-12-29T00:39:21;9.90;99.90
3194;DHT22;1608;50.860;13.466;2022-12-29T00:42:03;9.90;99.90
3194;DHT22;1608;50.860;13.466;2022-12-29T00:44:48;9.80;99.90
3194;DHT22;1608;50.860;13.466;2022-12-29T00:47:14;9.80;99.90
3194;DHT22;1608;50.860;13.466;2022-12-29T00:49:41;9.80;99.90
3194;DHT22;1608;50.860;13.466;2022-12-29T00:52:11;9.80;99.90
3194;DHT22;1608;50.860;13.466;2022-12-29T00:54:39;9.80;99.90
3194;DHT22;1608;50.860;13.466;2022-12-29T00:57:08;9.80;99.90
3194;DHT22;1608;50.860;13.466;2022-12-29T00:59:35;9.80;99.90
3194;DHT22;1608;50.860;13.466;2022-12-29T01:02:02;9.80;99.90
3194;DHT22;1608;50.860;13.466;2022-12-29T01:04:29;9.70;99.90
3194;DHT22;1608;50.860;13.466;2022-12-29T01:06:56;9.60;99.90
3194;DHT22;1608;50.860;13.466;2022-12-29T01:09:24;9.50;99.90
3194;DHT22;1608;50.860;13.466;2022-12-29T01:12:09;9.60;99.90
3194;DHT22;1608;50.860;13.466;2022-12-29T01:14:36;9.60;99.90
3194;DHT22;1608;50.860;13.466;2022-12-29T01:17:04;9.60;99.90
3194;DHT22;1608;50.860;13.466;2022-12-29T01:19:31;9.50;99.90
3194;DHT22;1608;50.860;13.466;2022-12-29T01:21:58;9.60;99.90
3194;DHT22;1608;50.860;13.466;2022-12-29T01:24:26;9.50;99.90
3194;DHT22;1608;50.860;13.466;2022-12-29T01:26:53;9.40;99.90
3194;DHT22;1608;50.860;13.466;2022-12-29T01:29:20;9.40;99.90
3194;DHT22;1608;50.860;13.466;2022-12-29T01:31:47;9.40;99.90
3194;DHT22;1608;50.860;13.466;2022-12-29T01:34:15;9.40;99.90
3194;DHT22;1608;50.860;13.466;2022-12-29T01:36:42;9.30;99.90
3194;DHT22;1608;50.860;13.466;2022-12-29T01:39:09;9.30;99.90
3194;DHT22;1608;50.860;13.466;2022-12-29T01:41:37;9.30;99.90
3194;DHT22;1608;50.860;13.466;2022-12-29T01:47:04;9.30;99.90
3194;DHT22;1608;50.860;13.466;2022-12-29T01:49:31;9.30;99.90
3194;DHT22;1608;50.860;13.466;2022-12-29T01:52:01;9.40;99.90
3194;DHT22;1608;50.860;13.466;2022-12-29T01:54:32;9.40;99.90
3194;DHT22;1608;50.860;13.466;2022-12-29T01:57:04;9.50;99.90
3194;DHT22;1608;50.860;13.466;2022-12-29T01:59:34;9.50;99.90
3194;DHT22;1608;50.860;13.466;2022-12-29T02:02:03;9.50;99.90
3194;DHT22;1608;50.860;13.466;2022-12-29T02:04:32;9.60;99.90
3194;DHT22;1608;50.860;13.466;2022-12-29T02:07:02;9.60;99.90
3194;DHT22;1608;50.860;13.466;2022-12-29T02:09:30;9.70;99.90
3194;DHT22;1608;50.860;13.466;2022-12-29T02:11:58;9.70;99.90
3194;DHT22;1608;50.860;13.466;2022-12-29T02:14:26;9.60;99.90
3194;DHT22;1608;50.860;13.466;2022-12-29T02:17:01;9.70;99.90
3194;DHT22;1608;50.860;13.466;2022-12-29T02:22:32;9.70;99.90
3194;DHT22;1608;50.860;13.466;2022-12-29T02:25:29;9.70;99.90
3194;DHT22;1608;50.860;13.466;2022-12-29T02:28:27;9.80;99.90
3194;DHT22;1608;50.860;13.466;2022-12-29T02:31:07;9.80;99.90
3194;DHT22;1608;50.860;13.466;2022-12-29T02:33:51;9.90;99.90
3194;DHT22;1608;50.860;13.466;2022-12-29T02:36:26;9.90;99.90
3194;DHT22;1608;50.860;13.466;2022-12-29T02:38:59;9.90;99.90
3194;DHT22;1608;50.860;13.466;2022-12-29T02:41:32;9.90;99.90
3194;DHT22;1608;50.860;13.466;2022-12-29T02:44:05;10.00;99.90
3194;DHT22;1608;50.860;13.466;2022-12-29T02:46:40;10.00;99.90
3194;DHT22;1608;50.860;13.466;2022-12-29T02:49:12;10.10;99.90
3194;DHT22;1608;50.860;13.466;2022-12-29T02:51:46;10.10;99.90
3194;DHT22;1608;50.860;13.466;2022-12-29T02:54:16;10.00;99.90
3194;DHT22;1608;50.860;13.466;2022-12-29T02:57:01;10.00;99.90
3194;DHT22;1608;50.860;13.466;2022-12-29T02:59:29;10.10;99.90
3194;DHT22;1608;50.860;13.466;2022-12-29T03:02:07;10.10;99.90
3194;DHT22;1608;50.860;13.466;2022-12-29T03:04:54;10.20;99.90
3194;DHT22;1608;50.860;13.466;2022-12-29T03:07:31;10.20;99.90
3194;DHT22;1608;50.860;13.466;2022-12-29T03:10:04;10.20;99.90
3194;DHT22;1608;50.860;13.466;2022-12-29T03:12:40;10.10;99.90
3194;DHT22;1608;50.860;13.466;2022-12-29T03:15:30;10.10;99.90
3194;DHT22;1608;50.860;13.466;2022-12-29T03:18:21;10.10;99.90
3194;DHT22;1608;50.860;13.466;2022-12-29T03:20:52;10.20;99.90
3194;DHT22;1608;50.860;13.466;2022-12-29T03:23:21;10.20;99.90
3194;DHT22;1608;50.860;13.466;2022-12-29T03:25:51;10.30;99.90
3194;DHT22;1608;50.860;13.466;2022-12-29T03:28:22;10.30;99.90
3194;DHT22;1608;50.860;13.466;2022-12-29T03:30:50;10.30;99.90
3194;DHT22;1608;50.860;13.466;2022-12-29T03:33:20;10.40;99.90
3194;DHT22;1608;50.860;13.466;2022-12-29T03:35:49;10.40;99.90
3194;DHT22;1608;50.860;13.466;2022-12-29T03:38:21;10.40;99.90
3194;DHT22;1608;50.860;13.466;2022-12-29T03:40:52;10.40;99.90
3194;DHT22;1608;50.860;13.466;2022-12-29T03:43:21;10.30;99.90
3194;DHT22;1608;50.860;13.466;2022-12-29T03:45:48;10.30;99.90
3194;DHT22;1608;50.860;13.466;2022-12-29T03:48:14;10.40;99.90
3194;DHT22;1608;50.860;13.466;2022-12-29T03:50:43;10.30;99.90
3194;DHT22;1608;50.860;13.466;2022-12-29T03:53:09;10.40;99.90
3194;DHT22;1608;50.860;13.466;2022-12-29T03:55:36;10.40;99.90
3194;DHT22;1608;50.860;13.466;2022-12-29T03:58:03;10.40;99.90
3194;DHT22;1608;50.860;13.466;2022-12-29T04:00:30;10.40;99.90
3194;DHT22;1608;50.860;13.466;2022-12-29T04:02:56;10.40;99.90
3194;DHT22;1608;50.860;13.466;2022-12-29T04:05:23;10.50;99.90
3194;DHT22;1608;50.860;13.466;2022-12-29T04:07:51;10.60;99.90
3194;DHT22;1608;50.860;13.466;2022-12-29T04:10:18;10.70;99.90
3194;DHT22;1608;50.860;13.466;2022-12-29T04:12:45;10.80;99.90
3194;DHT22;1608;50.860;13.466;2022-12-29T04:15:12;10.70;99.90
3194;DHT22;1608;50.860;13.466;2022-12-29T04:17:39;10.70;99.90
3194;DHT22;1608;50.860;13.466;2022-12-29T04:20:06;10.60;99.90
3194;DHT22;1608;50.860;13.466;2022-12-29T04:22:59;10.60;99.90
3194;DHT22;1608;50.860;13.466;2022-12-29T04:25:25;10.50;99.90
3194;DHT22;1608;50.860;13.466;2022-12-29T04:27:52;10.50;99.90
3194;DHT22;1608;50.860;13.466;2022-12-29T04:30:19;10.60;99.90
3194;DHT22;1608;50.860;13.466;2022-12-29T04:32:46;10.60;99.90
3194;DHT22;1608;50.860;13.466;2022-12-29T04:35:13;10.50;99.90
3194;DHT22;1608;50.860;13.466;2022-12-29T04:37:39;10.60;99.90
3194;DHT22;1608;50.860;13.466;2022-12-29T04:40:09;10.60;99.90
3194;DHT22;1608;50.860;13.466;2022-12-29T04:42:36;10.60;99.90
3194;DHT22;1608;50.860;13.466;2022-12-29T04:45:03;10.60;99.90
3194;DHT22;1608;50.860;13.466;2022-12-29T04:47:30;10.70;99.90
3194;DHT22;1608;50.860;13.466;2022-12-29T04:49:57;10.70;99.90
3194;DHT22;1608;50.860;13.466;2022-12-29T04:52:24;10.80;99.90
3194;DHT22;1608;50.860;13.466;2022-12-29T04:54:50;10.80;99.90
3194;DHT22;1608;50.860;13.466;2022-12-29T04:57:18;10.90;99.90
3194;DHT22;1608;50.860;13.466;2022-12-29T04:59:45;10.90;99.90
3194;DHT22;1608;50.860;13.466;2022-12-29T05:02:12;10.80;99.90
3194;DHT22;1608;50.860;13.466;2022-12-29T05:04:39;10.70;99.90
3194;DHT22;1608;50.860;13.466;2022-12-29T05:07:06;10.70;99.90
3194;DHT22;1608;50.860;13.466;2022-12-29T05:09:32;10.60;99.90
3194;DHT22;1608;50.860;13.466;2022-12-29T05:11:59;10.70;99.90
3194;DHT22;1608;50.860;13.466;2022-12-29T05:14:27;10.70;99.90
3194;DHT22;1608;50.860;13.466;2022-12-29T05:16:54;10.70;99.90
3194;DHT22;1608;50.860;13.466;2022-12-29T05:19:21;10.70;99.90
3194;DHT22;1608;50.860;13.466;2022-12-29T05:21:48;10.70;99.90
3194;DHT22;1608;50.860;13.466;2022-12-29T05:24:15;10.70;99.90
3194;DHT22;1608;50.860;13.466;2022-12-29T05:26:42;10.70;99.90
3194;DHT22;1608;50.860;13.466;2022-12-29T05:29:08;10.60;99.90
3194;DHT22;1608;50.860;13.466;2022-12-29T05:31:36;10.60;99.90
3194;DHT22;1608;50.860;13.466;2022-12-29T05:34:03;10.60;99.90
3194;DHT22;1608;50.860;13.466;2022-12-29T05:36:30;10.70;99.90
3194;DHT22;1608;50.860;13.466;2022-12-29T05:38:57;10.70;99.90
3194;DHT22;1608;50.860;13.466;2022-12-29T05:41:24;10.80;99.90
3194;DHT22;1608;50.860;13.466;2022-12-29T05:43:51;10.80;99.90
3194;DHT22;1608;50.860;13.466;2022-12-29T05:46:18;10.80;99.90
3194;DHT22;1608;50.860;13.466;2022-12-29T05:48:46;10.80;99.90
3194;DHT22;1608;50.860;13.466;2022-12-29T05:51:15;10.80;99.90
3194;DHT22;1608;50.860;13.466;2022-12-29T05:53:42;10.80;99.90
3194;DHT22;1608;50.860;13.466;2022-12-29T05:56:09;10.80;99.90
3194;DHT22;1608;50.860;13.466;2022-12-29T05:58:35;10.80;99.90
3194;DHT22;1608;50.860;13.466;2022-12-29T06:01:02;10.80;99.90
3194;DHT22;1608;50.860;13.466;2022-12-29T06:03:29;10.80;99.90
3194;DHT22;1608;50.860;13.466;2022-12-29T06:05:57;10.90;99.90
3194;DHT22;1608;50.860;13.466;2022-12-29T06:08:24;10.80;99.90
3194;DHT22;1608;50.860;13.466;2022-12-29T06:10:51;10.90;99.90
3194;DHT22;1608;50.860;13.466;2022-12-29T06:13:18;10.90;99.90
3194;DHT22;1608;50.860;13.466;2022-12-29T06:15:44;10.90;99.90
3194;DHT22;1608;50.860;13.466;2022-12-29T06:18:11;10.90;99.90
3194;DHT22;1608;50.860;13.466;2022-12-29T06:20:38;10.90;99.90
3194;DHT22;1608;50.860;13.466;2022-12-29T06:23:06;11.00;99.90
3194;DHT22;1608;50.860;13.466;2022-12-29T06:25:33;11.00;99.90
3194;DHT22;1608;50.860;13.466;2022-12-29T06:28:01;10.90;99.90
3194;DHT22;1608;50.860;13.466;2022-12-29T06:30:28;10.80;99.90
3194;DHT22;1608;50.860;13.466;2022-12-29T06:32:55;10.80;99.90
3194;DHT22;1608;50.860;13.466;2022-12-29T06:35:22;10.70;99.90
3194;DHT22;1608;50.860;13.466;2022-12-29T06:37:49;10.70;99.90
3194;DHT22;1608;50.860;13.466;2022-12-29T06:40:17;10.70;99.90
3194;DHT22;1608;50.860;13.466;2022-12-29T06:42:44;10.60;99.90
3194;DHT22;1608;50.860;13.466;2022-12-29T06:45:11;10.50;99.90
3194;DHT22;1608;50.860;13.466;2022-12-29T06:47:37;10.50;99.90
3194;DHT22;1608;50.860;13.466;2022-12-29T06:50:05;10.30;99.90
3194;DHT22;1608;50.860;13.466;2022-12-29T06:52:32;10.40;99.90
3194;DHT22;1608;50.860;13.466;2022-12-29T06:54:59;10.50;99.90
3194;DHT22;1608;50.860;13.466;2022-12-29T06:57:27;10.50;99.90
3194;DHT22;1608;50.860;13.466;2022-12-29T06:59:54;10.50;99.90
3194;DHT22;1608;50.860;13.466;2022-12-29T07:02:22;10.50;99.90
3194;DHT22;1608;50.860;13.466;2022-12-29T07:04:50;10.50;99.90
3194;DHT22;1608;50.860;13.466;2022-12-29T07:07:17;10.60;99.90
3194;DHT22;1608;50.860;13.466;2022-12-29T07:09:44;10.50;99.90
3194;DHT22;1608;50.860;13.466;2022-12-29T07:12:11;10.60;99.90
3194;DHT22;1608;50.860;13.466;2022-12-29T07:14:39;10.70;99.90
3194;DHT22;1608;50.860;13.466;2022-12-29T07:17:06;10.70;99.90
3194;DHT22;1608;50.860;13.466;2022-12-29T07:19:33;10.80;99.90
3194;DHT22;1608;50.860;13.466;2022-12-29T07:22:00;10.80;99.90
3194;DHT22;1608;50.860;13.466;2022-12-29T07:24:27;10.90;99.90
3194;DHT22;1608;50.860;13.466;2022-12-29T07:26:55;11.00;99.90
3194;DHT22;1608;50.860;13.466;2022-12-29T07:29:22;11.00;99.90
3194;DHT22;1608;50.860;13.466;2022-12-29T07:31:50;11.00;99.90
3194;DHT22;1608;50.860;13.466;2022-12-29T07:34:17;11.00;99.90
3194;DHT22;1608;50.860;13.466;2022-12-29T07:36:43;11.00;99.90
3194;DHT22;1608;50.860;13.466;2022-12-29T07:39:10;11.00;99.90
3194;DHT22;1608;50.860;13.466;2022-12-29T07:41:38;11.00;99.90
3194;DHT22;1608;50.860;13.466;2022-12-29T07:44:04;11.00;99.90
3194;DHT22;1608;50.860;13.466;2022-12-29T07:46:31;10.80;99.90
3194;DHT22;1608;50.860;13.466;2022-12-29T07:48:59;10.80;99.90
3194;DHT22;1608;50.860;13.466;2022-12-29T07:51:26;10.90;99.90
3194;DHT22;1608;50.860;13.466;2022-12-29T07:53:53;10.80;99.90
3194;DHT22;1608;50.860;13.466;2022-12-29T07:56:20;10.70;99.90
3194;DHT22;1608;50.860;13.466;2022-12-29T07:58:46;10.70;99.90
3194;DHT22;1608;50.860;13.466;2022-12-29T08:01:13;10.60;99.90
3194;DHT22;1608;50.860;13.466;2022-12-29T08:03:40;10.70;99.90
3194;DHT22;1608;50.860;13.466;2022-12-29T08:06:10;10.80;99.90
3194;DHT22;1608;50.860;13.466;2022-12-29T08:08:37;10.80;99.90
3194;DHT22;1608;50.860;13.466;2022-12-29T08:11:04;10.70;99.90
3194;DHT22;1608;50.860;13.466;2022-12-29T08:13:31;10.70;99.90
3194;DHT22;1608;50.860;13.466;2022-12-29T08:15:58;10.70;99.90
3194;DHT22;1608;50.860;13.466;2022-12-29T08:18:25;10.70;99.90
3194;DHT22;1608;50.860;13.466;2022-12-29T08:20:51;10.80;99.90
3194;DHT22;1608;50.860;13.466;2022-12-29T08:23:20;10.70;99.90
3194;DHT22;1608;50.860;13.466;2022-12-29T08:25:46;10.70;99.90
3194;DHT22;1608;50.860;13.466;2022-12-29T08:28:13;10.90;99.90
3194;DHT22;1608;50.860;13.466;2022-12-29T08:30:40;10.90;99.90
3194;DHT22;1608;50.860;13.466;2022-12-29T08:33:07;11.00;99.90
3194;DHT22;1608;50.860;13.466;2022-12-29T08:35:34;11.20;99.90
3194;DHT22;1608;50.860;13.466;2022-12-29T08:38:00;11.30;99.90
3194;DHT22;1608;50.860;13.466;2022-12-29T08:40:29;11.40;99.90
3194;DHT22;1608;50.860;13.466;2022-12-29T08:42:55;11.40;99.90
3194;DHT22;1608;50.860;13.466;2022-12-29T08:45:22;11.40;99.90
3194;DHT22;1608;50.860;13.466;2022-12-29T08:47:49;11.40;99.90
3194;DHT22;1608;50.860;13.466;2022-12-29T08:50:16;11.50;99.90
3194;DHT22;1608;50.860;13.466;2022-12-29T08:52:43;11.50;99.90
3194;DHT22;1608;50.860;13.466;2022-12-29T08:55:09;11.50;99.90
3194;DHT22;1608;50.860;13.466;2022-12-29T08:57:38;11.50;99.90
3194;DHT22;1608;50.860;13.466;2022-12-29T09:00:06;11.50;99.90
3194;DHT22;1608;50.860;13.466;2022-12-29T09:02:33;11.40;99.90
3194;DHT22;1608;50.860;13.466;2022-12-29T09:04:59;11.40;99.90
3194;DHT22;1608;50.860;13.466;2022-12-29T09:07:26;11.30;99.90
3194;DHT22;1608;50.860;13.466;2022-12-29T09:09:53;11.30;99.90
3194;DHT22;1608;50.860;13.466;2022-12-29T09:12:20;11.40;99.90
3194;DHT22;1608;50.860;13.466;2022-12-29T09:14:48;11.30;99.90
3194;DHT22;1608;50.860;13.466;2022-12-29T09:17:15;11.40;99.90
3194;DHT22;1608;50.860;13.466;2022-12-29T09:19:59;11.40;99.90
3194;DHT22;1608;50.860;13.466;2022-12-29T09:22:26;11.40;99.90
3194;DHT22;1608;50.860;13.466;2022-12-29T09:24:53;11.40;99.90
3194;DHT22;1608;50.860;13.466;2022-12-29T09:27:19;11.40;99.90
3194;DHT22;1608;50.860;13.466;2022-12-29T09:29:47;11.30;99.90
3194;DHT22;1608;50.860;13.466;2022-12-29T09:32:14;11.30;99.90
3194;DHT22;1608;50.860;13.466;2022-12-29T09:34:41;11.30;99.90
3194;DHT22;1608;50.860;13.466;2022-12-29T09:37:08;11.40;99.90
3194;DHT22;1608;50.860;13.466;2022-12-29T09:39:35;11.30;99.90
3194;DHT22;1608;50.860;13.466;2022-12-29T09:42:08;11.30;99.90
3194;DHT22;1608;50.860;13.466;2022-12-29T09:44:49;11.40;99.90
3194;DHT22;1608;50.860;13.466;2022-12-29T09:47:19;11.50;99.90
3194;DHT22;1608;50.860;13.466;2022-12-29T09:49:49;11.50;99.90
3194;DHT22;1608;50.860;13.466;2022-12-29T09:52:21;11.40;99.90
3194;DHT22;1608;50.860;13.466;2022-12-29T09:54:53;11.40;99.90
3194;DHT22;1608;50.860;13.466;2022-12-29T09:57:24;11.40;99.90
3194;DHT22;1608;50.860;13.466;2022-12-29T09:59:56;12.20;99.90
3194;DHT22;1608;50.860;13.466;2022-12-29T10:02:33;11.40;99.90
3194;DHT22;1608;50.860;13.466;2022-12-29T10:05:00;11.50;99.90
3194;DHT22;1608;50.860;13.466;2022-12-29T10:07:36;11.40;99.90
3194;DHT22;1608;50.860;13.466;2022-12-29T10:10:20;11.50;99.90
3194;DHT22;1608;50.860;13.466;2022-12-29T10:12:59;11.50;99.90
3194;DHT22;1608;50.860;13.466;2022-12-29T10:15:49;11.60;99.90
3194;DHT22;1608;50.860;13.466;2022-12-29T10:18:41;11.60;99.90
3194;DHT22;1608;50.860;13.466;2022-12-29T10:21:17;11.70;99.90
3194;DHT22;1608;50.860;13.466;2022-12-29T10:23:49;11.70;99.90
3194;DHT22;1608;50.860;13.466;2022-12-29T10:26:19;11.70;99.90
3194;DHT22;1608;50.860;13.466;2022-12-29T10:28:49;11.90;99.90
3194;DHT22;1608;50.860;13.466;2022-12-29T10:31:22;12.50;99.90
3194;DHT22;1608;50.860;13.466;2022-12-29T10:33:51;12.30;99.90
3194;DHT22;1608;50.860;13.466;2022-12-29T10:36:22;12.50;99.90
3194;DHT22;1608;50.860;13.466;2022-12-29T10:39:02;12.70;99.90
3194;DHT22;1608;50.860;13.466;2022-12-29T10:41:36;12.80;99.90
3194;DHT22;1608;50.860;13.466;2022-12-29T10:44:07;12.90;99.90
3194;DHT22;1608;50.860;13.466;2022-12-29T10:46:37;12.90;99.90
3194;DHT22;1608;50.860;13.466;2022-12-29T10:49:05;12.90;99.90
3194;DHT22;1608;50.860;13.466;2022-12-29T10:51:35;12.90;99.90
3194;DHT22;1608;50.860;13.466;2022-12-29T10:54:06;12.90;99.90
3194;DHT22;1608;50.860;13.466;2022-12-29T10:56:40;12.90;99.90
3194;DHT22;1608;50.860;13.466;2022-12-29T10:59:14;12.90;99.90
3194;DHT22;1608;50.860;13.466;2022-12-29T11:01:49;13.10;99.90
3194;DHT22;1608;50.860;13.466;2022-12-29T11:04:36;13.20;99.90
3194;DHT22;1608;50.860;13.466;2022-12-29T11:07:05;13.40;99.90
3194;DHT22;1608;50.860;13.466;2022-12-29T11:09:34;13.60;99.90
3194;DHT22;1608;50.860;13.466;2022-12-29T11:12:18;13.80;99.90
3194;DHT22;1608;50.860;13.466;2022-12-29T11:14:46;13.90;99.90
3194;DHT22;1608;50.860;13.466;2022-12-29T11:17:17;13.90;99.90
3194;DHT22;1608;50.860;13.466;2022-12-29T11:19:44;13.90;99.90
3194;DHT22;1608;50.860;13.466;2022-12-29T11:22:21;13.80;99.90
3194;DHT22;1608;50.860;13.466;2022-12-29T11:24:50;13.80;99.90
3194;DHT22;1608;50.860;13.466;2022-12-29T11:27:19;13.30;99.90
3194;DHT22;1608;50.860;13.466;2022-12-29T11:29:49;13.60;99.90
3194;DHT22;1608;50.860;13.466;2022-12-29T11:32:20;13.50;99.90
3194;DHT22;1608;50.860;13.466;2022-12-29T11:34:48;13.40;99.90
3194;DHT22;1608;50.860;13.466;2022-12-29T11:37:17;13.30;99.90
3194;DHT22;1608;50.860;13.466;2022-12-29T11:39:50;13.20;99.90
3194;DHT22;1608;50.860;13.466;2022-12-29T11:42:21;13.10;99.90
3194;DHT22;1608;50.860;13.466;2022-12-29T11:44:51;13.10;99.90
3194;DHT22;1608;50.860;13.466;2022-12-29T11:47:26;13.00;99.90
3194;DHT22;1608;50.860;13.466;2022-12-29T11:49:57;13.10;99.90
3194;DHT22;1608;50.860;13.466;2022-12-29T11:52:26;13.00;99.90
3194;DHT22;1608;50.860;13.466;2022-12-29T11:54:55;13.10;99.90
3194;DHT22;1608;50.860;13.466;2022-12-29T11:57:23;13.20;99.90
3194;DHT22;1608;50.860;13.466;2022-12-29T11:59:52;13.20;99.90
3194;DHT22;1608;50.860;13.466;2022-12-29T12:02:36;13.20;99.90
3194;DHT22;1608;50.860;13.466;2022-12-29T12:05:11;13.10;99.90
3194;DHT22;1608;50.860;13.466;2022-12-29T12:07:40;13.20;99.90
3194;DHT22;1608;50.860;13.466;2022-12-29T12:10:18;13.20;99.90
3194;DHT22;1608;50.860;13.466;2022-12-29T12:12:51;13.30;99.90
3194;DHT22;1608;50.860;13.466;2022-12-29T12:15:22;13.30;99.90
3194;DHT22;1608;50.860;13.466;2022-12-29T12:17:55;13.30;99.90
3194;DHT22;1608;50.860;13.466;2022-12-29T12:20:31;13.30;99.90
3194;DHT22;1608;50.860;13.466;2022-12-29T12:23:06;13.20;99.90
3194;DHT22;1608;50.860;13.466;2022-12-29T12:25:39;13.20;99.90
3194;DHT22;1608;50.860;13.466;2022-12-29T12:28:11;13.20;99.90
3194;DHT22;1608;50.860;13.466;2022-12-29T12:30:46;13.30;99.90
3194;DHT22;1608;50.860;13.466;2022-12-29T12:33:21;12.50;99.90
3194;DHT22;1608;50.860;13.466;2022-12-29T12:36:00;13.40;99.90
3194;DHT22;1608;50.860;13.466;2022-12-29T12:38:37;13.50;99.90
3194;DHT22;1608;50.860;13.466;2022-12-29T12:41:12;13.50;99.90
3194;DHT22;1608;50.860;13.466;2022-12-29T12:43:43;13.50;99.90
3194;DHT22;1608;50.860;13.466;2022-12-29T12:46:19;13.50;99.90
3194;DHT22;1608;50.860;13.466;2022-12-29T12:52:07;13.20;99.90
3194;DHT22;1608;50.860;13.466;2022-12-29T12:54:47;13.00;99.90
3194;DHT22;1608;50.860;13.466;2022-12-29T12:57:21;12.80;99.90
3194;DHT22;1608;50.860;13.466;2022-12-29T12:59:56;12.80;99.90
3194;DHT22;1608;50.860;13.466;2022-12-29T13:02:36;12.80;99.90
3194;DHT22;1608;50.860;13.466;2022-12-29T13:05:20;12.80;99.90
3194;DHT22;1608;50.860;13.466;2022-12-29T13:08:01;12.80;99.90
3194;DHT22;1608;50.860;13.466;2022-12-29T13:10:39;12.90;99.90
3194;DHT22;1608;50.860;13.466;2022-12-29T13:16:06;13.00;99.90
3194;DHT22;1608;50.860;13.466;2022-12-29T13:18:41;13.00;99.90
3194;DHT22;1608;50.860;13.466;2022-12-29T13:21:20;13.00;99.90
3194;DHT22;1608;50.860;13.466;2022-12-29T13:23:55;13.00;99.90
3194;DHT22;1608;50.860;13.466;2022-12-29T13:26:26;13.00;99.90
3194;DHT22;1608;50.860;13.466;2022-12-29T13:28:56;13.00;99.90
3194;DHT22;1608;50.860;13.466;2022-12-29T13:31:32;12.90;99.90
3194;DHT22;1608;50.860;13.466;2022-12-29T13:34:09;12.90;99.90
3194;DHT22;1608;50.860;13.466;2022-12-29T13:36:42;12.80;99.90
3194;DHT22;1608;50.860;13.466;2022-12-29T13:39:13;12.80;99.90
3194;DHT22;1608;50.860;13.466;2022-12-29T13:41:45;12.70;99.90
3194;DHT22;1608;50.860;13.466;2022-12-29T13:44:17;12.70;99.90
3194;DHT22;1608;50.860;13.466;2022-12-29T13:46:45;12.70;99.90
3194;DHT22;1608;50.860;13.466;2022-12-29T13:49:15;12.70;99.90
3194;DHT22;1608;50.860;13.466;2022-12-29T13:51:47;12.70;99.90
3194;DHT22;1608;50.860;13.466;2022-12-29T13:54:26;12.70;99.90
3194;DHT22;1608;50.860;13.466;2022-12-29T13:56:59;12.70;99.90
3194;DHT22;1608;50.860;13.466;2022-12-29T13:59:37;12.70;99.90
3194;DHT22;1608;50.860;13.466;2022-12-29T14:02:16;12.70;99.90
3194;DHT22;1608;50.860;13.466;2022-12-29T14:04:57;12.70;99.90
3194;DHT22;1608;50.860;13.466;2022-12-29T14:07:24;12.70;99.90
3194;DHT22;1608;50.860;13.466;2022-12-29T14:09:54;12.70;99.90
3194;DHT22;1608;50.860;13.466;2022-12-29T14:12:29;12.60;99.90
3194;DHT22;1608;50.860;13.466;2022-12-29T14:15:19;12.60;99.90
3194;DHT22;1608;50.860;13.466;2022-12-29T14:18:04;12.70;99.90
3194;DHT22;1608;50.860;13.466;2022-12-29T14:20:32;12.50;99.90
3194;DHT22;1608;50.860;13.466;2022-12-29T14:23:14;12.50;99.90
3194;DHT22;1608;50.860;13.466;2022-12-29T14:26:12;12.60;99.90
3194;DHT22;1608;50.860;13.466;2022-12-29T14:28:40;12.70;99.90
3194;DHT22;1608;50.860;13.466;2022-12-29T14:31:35;12.70;99.90
3194;DHT22;1608;50.860;13.466;2022-12-29T14:34:33;12.80;99.90
3194;DHT22;1608;50.860;13.466;2022-12-29T14:37:17;12.80;99.90
3194;DHT22;1608;50.860;13.466;2022-12-29T14:39:48;12.80;99.90
3194;DHT22;1608;50.860;13.466;2022-12-29T14:42:20;12.70;99.90
3194;DHT22;1608;50.860;13.466;2022-12-29T14:44:50;12.80;99.90
3194;DHT22;1608;50.860;13.466;2022-12-29T14:47:20;12.80;99.90
3194;DHT22;1608;50.860;13.466;2022-12-29T14:49:49;12.90;99.90
3194;DHT22;1608;50.860;13.466;2022-12-29T14:52:19;12.90;99.90
3194;DHT22;1608;50.860;13.466;2022-12-29T14:54:49;12.90;99.90
3194;DHT22;1608;50.860;13.466;2022-12-29T14:57:26;12.90;99.90
3194;DHT22;1608;50.860;13.466;2022-12-29T14:59:56;12.90;99.90
3194;DHT22;1608;50.860;13.466;2022-12-29T15:02:26;12.80;99.90
3194;DHT22;1608;50.860;13.466;2022-12-29T15:05:00;12.70;99.90
3194;DHT22;1608;50.860;13.466;2022-12-29T15:07:28;12.60;99.90
3194;DHT22;1608;50.860;13.466;2022-12-29T15:10:00;12.50;99.90
3194;DHT22;1608;50.860;13.466;2022-12-29T15:12:36;12.40;99.90
3194;DHT22;1608;50.860;13.466;2022-12-29T15:15:18;12.30;99.90
3194;DHT22;1608;50.860;13.466;2022-12-29T15:17:45;12.20;99.90
3194;DHT22;1608;50.860;13.466;2022-12-29T15:20:22;12.20;99.90
3194;DHT22;1608;50.860;13.466;2022-12-29T15:22:52;12.10;99.90
3194;DHT22;1608;50.860;13.466;2022-12-29T15:25:19;12.00;99.90
3194;DHT22;1608;50.860;13.466;2022-12-29T15:27:50;11.90;99.90
3194;DHT22;1608;50.860;13.466;2022-12-29T15:30:21;11.90;99.90
3194;DHT22;1608;50.860;13.466;2022-12-29T15:32:49;11.90;99.90
3194;DHT22;1608;50.860;13.466;2022-12-29T15:35:30;11.90;99.90
3194;DHT22;1608;50.860;13.466;2022-12-29T15:37:58;11.90;99.90
3194;DHT22;1608;50.860;13.466;2022-12-29T15:40:29;11.90;99.90
3194;DHT22;1608;50.860;13.466;2022-12-29T15:43:12;11.80;99.90
3194;DHT22;1608;50.860;13.466;2022-12-29T15:45:41;11.80;99.90
3194;DHT22;1608;50.860;13.466;2022-12-29T15:48:15;11.70;99.90
3194;DHT22;1608;50.860;13.466;2022-12-29T15:50:43;11.60;99.90
3194;DHT22;1608;50.860;13.466;2022-12-29T15:53:12;11.60;99.90
3194;DHT22;1608;50.860;13.466;2022-12-29T15:55:44;11.70;99.90
3194;DHT22;1608;50.860;13.466;2022-12-29T15:58:22;11.70;99.90
3194;DHT22;1608;50.860;13.466;2022-12-29T16:00:51;11.70;99.90
3194;DHT22;1608;50.860;13.466;2022-12-29T16:03:20;11.70;99.90
3194;DHT22;1608;50.860;13.466;2022-12-29T16:05:53;11.70;99.90
3194;DHT22;1608;50.860;13.466;2022-12-29T16:08:32;11.70;99.90
3194;DHT22;1608;50.860;13.466;2022-12-29T16:11:01;11.60;99.90
3194;DHT22;1608;50.860;13.466;2022-12-29T16:13:31;11.60;99.90
3194;DHT22;1608;50.860;13.466;2022-12-29T16:16:02;11.60;99.90
3194;DHT22;1608;50.860;13.466;2022-12-29T16:18:35;11.70;99.90
3194;DHT22;1608;50.860;13.466;2022-12-29T16:21:03;11.80;99.90
3194;DHT22;1608;50.860;13.466;2022-12-29T16:23:31;11.70;99.90